Time;durP1;ratioP1;P1;durP2;ratioP2;P2;SDS_P1;SDS_P2;PMS_P1;PMS_P2;Temp;Humidity;BMP_temperature;BMP_pressure;BME280_temperature;BME280_humidity;BME280_pressure;Samples;Min_cycle;Max_cycle;Signal;HPM_P1;HPM_P2
2022/07/21 00:01:15;;;;;;;22.98;20.55;;;19.20;99.90;;;18.87;95.05;98706.69;5014414;28;20080;-64
2022/07/21 00:03:42;;;;;;;26.13;23.35;;;19.20;99.90;;;18.75;95.22;98700.34;5016513;28;20053;-64
2022/07/21 00:06:15;;;;;;;19.50;17.33;;;19.20;99.90;;;18.90;95.28;98698.59;4998240;28;20045;-64
2022/07/21 00:08:43;;;;;;;19.25;16.42;;;19.20;99.90;;;18.95;95.54;98681.63;5018924;28;20053;-64
2022/07/21 00:11:13;;;;;;;19.17;17.27;;;19.20;99.90;;;18.91;95.91;98674.00;5017172;28;20038;-64
2022/07/21 00:13:43;;;;;;;20.40;17.80;;;19.30;99.90;;;18.91;96.22;98679.28;5020869;28;20440;-64
2022/07/21 00:16:13;;;;;;;19.50;17.50;;;19.30;99.90;;;18.87;96.44;98675.97;5019613;28;20065;-64
2022/07/21 00:18:54;;;;;;;24.58;20.20;;;19.30;99.90;;;18.86;96.59;98674.28;5022058;28;20057;-65
2022/07/21 00:21:22;;;;;;;20.25;18.08;;;19.30;99.90;;;18.79;96.72;98671.16;5019369;28;20128;-67
2022/07/21 00:23:48;;;;;;;24.05;21.48;;;19.30;99.90;;;18.73;96.81;98671.47;5021430;28;20179;-64
2022/07/21 00:26:19;;;;;;;23.05;19.63;;;19.20;99.90;;;18.64;96.85;98668.56;5020149;28;20041;-65
2022/07/21 00:28:49;;;;;;;17.77;15.82;;;19.10;99.90;;;18.79;96.82;98672.94;5003198;28;20136;-65
2022/07/21 00:31:16;;;;;;;20.73;18.52;;;19.10;99.90;;;18.61;97.06;98674.84;5017783;28;20449;-65
2022/07/21 00:33:44;;;;;;;19.30;16.88;;;19.10;99.90;;;18.50;97.23;98658.84;5020700;28;20061;-65
2022/07/21 00:36:19;;;;;;;18.08;16.17;;;19.00;99.90;;;19.11;97.07;98672.81;5018736;28;20374;-65
2022/07/21 00:38:46;;;;;;;20.13;16.02;;;19.00;99.90;;;18.96;97.50;98654.38;5019378;28;20096;-66
2022/07/21 00:41:13;;;;;;;20.67;17.10;;;19.00;99.90;;;18.92;97.85;98649.38;5024151;28;20136;-66
2022/07/21 00:43:40;;;;;;;21.05;18.58;;;19.00;99.90;;;19.17;97.96;98640.84;5019460;28;20136;-65
2022/07/21 00:46:10;;;;;;;23.08;19.52;;;19.00;99.90;;;19.12;98.41;98641.13;5006367;28;20077;-66
2022/07/21 00:48:44;;;;;;;24.15;20.85;;;19.00;99.90;;;18.97;98.66;98637.63;4996308;28;20617;-67
2022/07/21 00:51:14;;;;;;;23.83;20.88;;;19.00;99.90;;;18.72;98.89;98630.31;5013390;28;20707;-66
2022/07/21 00:53:47;;;;;;;;;;;19.00;99.90;;;18.61;98.89;98635.41;5019039;28;20053;-66
2022/07/21 00:56:15;;;;;;;27.38;24.42;;;19.00;99.90;;;18.71;98.67;98649.69;5016332;28;19928;-66
2022/07/21 00:58:42;;;;;;;30.38;27.17;;;19.10;99.90;;;18.50;98.63;98645.69;4982024;28;20125;-66
2022/07/21 01:01:16;;;;;;;31.10;26.35;;;19.20;99.90;;;18.53;98.27;98654.22;5016385;28;20553;-66
2022/07/21 01:03:44;;;;;;;31.80;26.70;;;19.20;99.90;;;18.87;97.96;98670.69;5014852;28;20060;-66
2022/07/21 01:06:14;;;;;;;38.05;33.95;;;19.20;99.90;;;18.78;98.18;98682.59;5016770;28;20156;-66
2022/07/21 01:08:41;;;;;;;31.58;28.35;;;19.20;99.90;;;18.80;98.24;98672.00;5015575;28;20393;-66
2022/07/21 01:11:08;;;;;;;30.42;27.30;;;19.20;99.90;;;18.99;98.44;98674.38;5001628;28;20136;-65
2022/07/21 01:13:41;;;;;;;29.77;26.25;;;19.20;99.90;;;18.83;98.82;98673.59;5017808;28;20379;-66
2022/07/21 01:16:09;;;;;;;;;;;19.20;99.90;;;18.69;99.09;98672.59;5019749;28;20049;-66
2022/07/21 01:18:36;;;;;;;30.90;27.70;;;19.20;99.90;;;18.81;99.12;98663.16;5005187;28;19983;-66
2022/07/21 01:21:41;;;;;;;30.73;27.52;;;19.10;99.90;;;18.79;99.28;98663.28;5007080;28;20064;-67
2022/07/21 01:24:09;;;;;;;27.13;24.33;;;19.20;99.90;;;18.91;99.56;98669.59;5002963;28;20053;-65
2022/07/21 01:26:51;;;;;;;29.27;25.10;;;19.20;99.90;;;18.96;99.68;98659.63;5008935;28;20496;-66
2022/07/21 01:29:19;;;;;;;26.50;23.80;;;19.20;99.90;;;18.70;100.00;98655.91;5004829;28;20118;-66
2022/07/21 01:31:48;;;;;;;25.63;23.02;;;19.20;99.90;;;18.61;100.00;98648.53;5022331;28;20156;-65
2022/07/21 01:34:17;;;;;;;23.40;20.88;;;19.20;99.90;;;18.94;100.00;98656.25;5019515;28;20105;-66
2022/07/21 01:36:45;;;;;;;29.02;25.88;;;19.30;99.90;;;18.84;100.00;98651.59;5021714;28;20103;-65
2022/07/21 01:42:06;;;;;;;29.27;25.17;;;19.20;99.90;;;18.81;100.00;98642.13;5021622;28;20053;-64
2022/07/21 01:44:33;;;;;;;22.98;20.67;;;19.30;99.90;;;19.05;100.00;98645.09;5021234;28;20132;-65
2022/07/21 01:47:00;;;;;;;23.25;20.83;;;19.20;99.90;;;19.13;100.00;98636.72;5007259;28;20049;-66
2022/07/21 01:49:27;;;;;;;24.35;21.75;;;19.20;99.90;;;18.97;100.00;98628.91;5023745;28;20357;-64
2022/07/21 01:51:54;;;;;;;21.88;19.55;;;19.30;99.90;;;19.12;100.00;98619.25;5006420;28;20077;-65
2022/07/21 01:54:21;;;;;;;18.85;16.88;;;19.40;99.90;;;19.30;100.00;98604.97;5025985;28;20828;-64
2022/07/21 01:56:53;;;;;;;19.50;17.33;;;19.40;99.90;;;19.26;100.00;98594.72;5023929;28;20046;-65
2022/07/21 01:59:20;;;;;;;19.00;17.13;;;19.40;99.90;;;19.13;100.00;98582.28;5021179;28;20110;-65
2022/07/21 02:01:47;;;;;;;22.60;19.20;;;19.40;99.90;;;19.06;100.00;98580.13;5021043;28;20152;-65
2022/07/21 02:04:14;;;;;;;25.98;21.25;;;19.40;99.90;;;18.67;100.00;98565.81;5017894;28;20046;-65
2022/07/21 02:06:47;;;;;;;20.20;18.10;;;19.40;99.90;;;18.81;100.00;98565.84;5022118;28;20061;-65
2022/07/21 02:09:14;;;;;;;17.67;15.88;;;19.40;99.90;;;19.11;100.00;98578.06;5020977;28;20046;-65
2022/07/21 02:11:41;;;;;;;18.30;16.50;;;19.30;99.90;;;19.28;100.00;98571.78;5020069;28;20172;-65
2022/07/21 02:14:14;;;;;;;18.60;16.65;;;19.40;99.90;;;19.32;100.00;98563.59;5022690;28;20041;-65
2022/07/21 02:16:44;;;;;;;19.48;17.40;;;19.50;99.90;;;19.26;100.00;98561.34;5020226;28;20057;-65
2022/07/21 02:19:11;;;;;;;18.25;16.35;;;19.50;99.90;;;19.36;100.00;98557.19;5019478;28;20080;-65
2022/07/21 02:21:38;;;;;;;22.73;18.88;;;19.50;99.90;;;19.25;100.00;98549.13;5025247;28;20049;-65
2022/07/21 02:24:07;;;;;;;20.42;17.98;;;19.50;99.90;;;19.28;100.00;98550.72;5018309;28;20092;-65
2022/07/21 02:26:37;;;;;;;18.40;16.35;;;19.40;99.90;;;19.44;100.00;98546.16;5023814;28;20136;-65
2022/07/21 02:29:03;;;;;;;17.92;16.00;;;19.40;99.90;;;19.36;100.00;98538.78;5019532;28;20140;-64
2022/07/21 02:31:31;;;;;;;20.17;17.88;;;19.40;99.90;;;19.29;100.00;98531.34;5023948;28;20049;-64
2022/07/21 02:33:58;;;;;;;21.83;18.88;;;19.30;99.90;;;19.03;100.00;98531.19;5001742;28;20073;-64
2022/07/21 02:36:25;;;;;;;23.38;20.02;;;19.30;99.90;;;18.98;100.00;98542.00;5023195;28;20057;-65
2022/07/21 02:38:55;;;;;;;27.42;22.80;;;19.20;99.90;;;18.73;100.00;98547.03;5024778;28;20080;-64
2022/07/21 02:41:22;;;;;;;23.20;20.55;;;19.10;99.90;;;18.79;100.00;98551.94;5022073;28;20095;-65
2022/07/21 02:43:52;;;;;;;25.05;22.35;;;19.00;99.90;;;18.54;100.00;98565.66;5022233;28;20182;-65
2022/07/21 02:46:19;;;;;;;24.42;21.92;;;18.90;99.90;;;18.48;100.00;98576.56;5021005;28;20141;-65
2022/07/21 02:48:46;;;;;;;23.67;19.05;;;18.80;99.90;;;18.44;100.00;98578.53;5021386;28;20087;-65
2022/07/21 02:51:13;;;;;;;19.80;17.63;;;18.70;99.90;;;18.46;100.00;98587.16;5020040;28;20046;-65
2022/07/21 02:53:40;;;;;;;18.73;15.95;;;18.70;99.90;;;18.51;100.00;98587.75;5006231;28;20719;-65
2022/07/21 02:56:10;;;;;;;18.65;15.32;;;18.70;99.90;;;18.45;100.00;98580.22;5018537;28;20060;-65
2022/07/21 02:58:37;;;;;;;19.20;16.38;;;18.80;99.90;;;18.81;100.00;98590.34;5024480;28;20128;-65
2022/07/21 03:01:07;;;;;;;21.48;18.02;;;18.70;99.90;;;18.56;100.00;98582.22;5016642;28;22059;-65
2022/07/21 03:03:36;;;;;;;17.67;15.43;;;18.60;99.90;;;18.88;100.00;98572.41;5021516;28;20049;-64
2022/07/21 03:06:07;;;;;;;18.88;15.30;;;18.60;99.90;;;18.84;100.00;98560.41;5001608;28;20177;-65
2022/07/21 03:08:34;;;;;;;16.90;15.10;;;18.50;99.90;;;18.67;100.00;98553.50;5021983;28;20305;-64
2022/07/21 03:11:02;;;;;;;21.77;16.63;;;18.50;99.90;;;18.41;100.00;98551.59;5023469;28;20483;-65
2022/07/21 03:13:32;;;;;;;20.55;17.30;;;18.40;99.90;;;18.54;100.00;98557.78;5006712;28;20433;-64
2022/07/21 03:15:59;;;;;;;15.82;14.23;;;18.30;99.90;;;18.76;100.00;98560.81;5017789;28;20058;-64
2022/07/21 03:18:27;;;;;;;19.45;17.35;;;18.40;99.90;;;18.58;100.00;98549.63;5020061;28;20531;-64
2022/07/21 03:20:58;;;;;;;20.30;16.27;;;18.40;99.90;;;18.74;100.00;98548.72;5020124;28;20052;-65
2022/07/21 03:23:28;;;;;;;16.63;14.10;;;18.40;99.90;;;18.89;100.00;98553.09;5021977;28;20144;-65
2022/07/21 03:25:55;;;;;;;18.60;14.88;;;18.40;99.90;;;18.73;100.00;98547.03;5024363;28;20094;-65
2022/07/21 03:28:22;;;;;;;21.60;18.75;;;18.50;99.90;;;18.50;100.00;98549.25;5025869;28;20073;-65
2022/07/21 03:30:49;;;;;;;19.17;16.98;;;18.50;99.90;;;18.63;100.00;98556.41;5022605;28;20408;-65
2022/07/21 03:33:16;;;;;;;18.55;16.52;;;18.40;99.90;;;18.75;100.00;98561.78;5015701;28;20053;-64
2022/07/21 03:35:43;;;;;;;21.70;17.00;;;18.50;99.90;;;18.78;100.00;98563.41;5020340;28;20361;-65
2022/07/21 03:38:10;;;;;;;19.13;16.27;;;18.60;99.90;;;18.98;100.00;98549.03;5019507;28;20465;-65
2022/07/21 03:40:38;;;;;;;19.13;16.35;;;18.60;99.90;;;19.05;100.00;98547.72;5023524;28;20074;-65
2022/07/21 03:43:07;;;;;;;18.67;16.67;;;18.70;99.90;;;18.91;100.00;98537.22;5004746;28;20049;-65
2022/07/21 03:45:36;;;;;;;22.75;18.40;;;18.80;99.90;;;18.91;100.00;98521.44;5027324;28;20125;-65
2022/07/21 03:48:06;;;;;;;20.92;18.75;;;18.80;99.90;;;18.80;100.00;98514.19;5028043;28;20583;-65
2022/07/21 03:50:35;;;;;;;20.70;18.60;;;18.70;99.90;;;18.73;100.00;98521.56;5012127;28;20085;-65
2022/07/21 03:53:03;;;;;;;20.80;18.63;;;18.70;99.90;;;18.71;100.00;98518.19;5011691;28;20124;-65
2022/07/21 03:55:33;;;;;;;21.42;18.42;;;18.70;99.90;;;18.65;100.00;98518.53;5025759;28;20060;-65
2022/07/21 03:58:04;;;;;;;20.08;17.20;;;18.70;99.90;;;18.86;100.00;98523.47;5023240;28;20061;-65
2022/07/21 04:00:41;;;;;;;21.73;17.92;;;18.60;99.90;;;18.95;100.00;98508.00;5027010;28;20119;-65
2022/07/21 04:03:10;;;;;;;22.15;19.10;;;18.70;99.90;;;18.91;100.00;98498.59;5023247;28;20085;-65
2022/07/21 04:05:49;;;;;;;26.23;22.73;;;18.70;99.90;;;18.64;100.00;98508.16;5005395;28;20120;-65
2022/07/21 04:08:17;;;;;;;24.15;21.25;;;18.50;99.90;;;18.62;100.00;98515.28;5023133;28;20049;-65
2022/07/21 04:10:44;;;;;;;32.17;26.95;;;18.60;99.90;;;18.34;100.00;98528.28;5025970;28;20416;-66
2022/07/21 04:13:13;;;;;;;24.27;20.58;;;18.50;99.90;;;18.74;100.00;98546.91;5020953;28;20136;-65
2022/07/21 04:15:43;;;;;;;26.50;23.05;;;18.40;99.90;;;18.60;100.00;98546.91;5025203;28;20418;-64
2022/07/21 04:18:14;;;;;;;22.02;19.73;;;18.50;99.90;;;18.64;100.00;98543.16;5026440;28;20123;-65
2022/07/21 04:20:41;;;;;;;27.63;23.48;;;18.60;99.90;;;18.52;100.00;98547.38;5025466;28;20067;-65
2022/07/21 04:23:14;;;;;;;29.77;25.25;;;18.60;99.90;;;18.27;100.00;98562.88;5024087;28;20049;-65
2022/07/21 04:25:41;;;;;;;27.58;23.58;;;18.50;99.90;;;18.28;100.00;98573.31;5026796;28;20094;-64
2022/07/21 04:28:11;;;;;;;22.70;20.10;;;18.60;99.90;;;18.64;100.00;98595.75;5022715;28;20234;-65
2022/07/21 04:30:38;;;;;;;22.40;18.25;;;18.50;99.90;;;18.84;100.00;98596.38;5024043;28;20077;-64
2022/07/21 04:33:06;;;;;;;25.52;22.85;;;18.60;99.90;;;18.43;100.00;98594.38;5028039;28;20061;-65
2022/07/21 04:35:33;;;;;;;21.40;19.10;;;18.60;99.90;;;18.83;100.00;98603.41;5024880;28;20053;-65
2022/07/21 04:38:00;;;;;;;21.27;18.98;;;18.70;99.90;;;18.92;100.00;98605.50;5022646;28;20081;-65
2022/07/21 04:40:28;;;;;;;25.45;19.67;;;18.70;99.90;;;18.52;100.00;98605.22;5025163;28;20073;-65
2022/07/21 04:42:55;;;;;;;21.25;18.85;;;18.70;99.90;;;19.00;100.00;98611.16;5023699;28;20056;-65
2022/07/21 04:45:25;;;;;;;19.92;16.58;;;18.70;99.90;;;18.88;100.00;98600.50;5023190;28;21114;-65
2022/07/21 04:47:54;;;;;;;19.48;17.27;;;18.80;99.90;;;19.31;100.00;98613.69;5012217;28;20132;-64
2022/07/21 04:50:25;;;;;;;18.88;15.88;;;18.90;99.90;;;18.81;100.00;98597.41;5025639;28;20056;-65
2022/07/21 04:52:54;;;;;;;17.13;14.80;;;19.00;99.90;;;19.14;100.00;98601.59;5006472;28;20140;-65
2022/07/21 04:55:22;;;;;;;18.08;15.50;;;19.10;99.90;;;18.71;100.00;98591.81;5023281;28;20050;-65
2022/07/21 04:57:57;;;;;;;15.73;14.02;;;19.00;99.90;;;18.87;100.00;98593.56;5019894;28;20049;-65
2022/07/21 05:00:26;;;;;;;19.52;17.52;;;18.90;99.90;;;18.50;100.00;98603.63;5006234;28;20037;-65
2022/07/21 05:02:54;;;;;;;19.67;17.58;;;18.90;99.90;;;18.43;100.00;98608.38;5013726;28;20160;-65
2022/07/21 05:05:23;;;;;;;20.55;17.73;;;18.90;99.90;;;18.24;100.00;98626.13;5024801;28;20595;-65
2022/07/21 05:07:50;;;;;;;20.17;16.88;;;18.80;99.90;;;18.32;100.00;98637.06;5024300;28;20047;-65
2022/07/21 05:10:18;;;;;;;17.27;12.70;;;18.70;99.90;;;18.70;100.00;98650.63;5025906;28;20153;-65
2022/07/21 05:12:45;;;;;;;23.42;18.38;;;18.70;99.90;;;18.45;100.00;98634.56;5004770;28;20138;-64
2022/07/21 05:15:13;;;;;;;18.63;13.90;;;18.80;99.90;;;18.69;100.00;98634.94;5018832;28;20210;-65
2022/07/21 05:17:41;;;;;;;14.52;12.63;;;18.80;99.90;;;18.83;100.00;98623.63;5009193;28;20056;-65
2022/07/21 05:20:14;;;;;;;16.17;14.40;;;18.90;99.90;;;18.86;100.00;98610.28;5007332;28;20132;-65
2022/07/21 05:22:44;;;;;;;15.48;12.63;;;19.00;99.90;;;18.96;100.00;98608.81;5026162;28;20128;-64
2022/07/21 05:25:11;;;;;;;18.60;13.27;;;19.00;99.90;;;18.94;100.00;98598.38;5022155;28;20509;-64
2022/07/21 05:27:49;;;;;;;15.60;12.85;;;19.10;99.90;;;18.94;100.00;98594.91;5021508;28;20072;-64
2022/07/21 05:30:16;;;;;;;14.38;11.98;;;19.10;99.90;;;18.91;100.00;98589.81;5017208;28;20103;-65
2022/07/21 05:32:43;;;;;;;14.45;11.90;;;19.20;99.90;;;19.10;100.00;98595.66;5025995;28;20176;-65
2022/07/21 05:35:17;;;;;;;17.35;13.65;;;19.30;99.90;;;18.89;100.00;98586.44;5004455;28;20056;-65
2022/07/21 05:37:45;;;;;;;16.27;13.80;;;19.30;99.90;;;18.96;100.00;98588.59;5025383;28;20073;-65
2022/07/21 05:40:12;;;;;;;14.27;12.75;;;19.30;99.90;;;18.90;100.00;98590.75;5027417;28;20498;-65
2022/07/21 05:42:42;;;;;;;14.20;11.30;;;19.40;99.90;;;19.22;100.00;98591.41;5027374;28;20128;-65
2022/07/21 05:45:11;;;;;;;14.88;10.38;;;19.50;99.90;;;19.34;100.00;98585.41;5025153;28;20167;-65
2022/07/21 05:47:39;;;;;;;13.90;11.02;;;19.60;99.90;;;19.61;100.00;98567.03;5009343;28;20045;-65
2022/07/21 05:50:07;;;;;;;14.13;11.30;;;19.70;99.90;;;19.04;100.00;98555.69;5026551;28;20132;-65
2022/07/21 05:52:34;;;;;;;15.45;11.88;;;19.70;99.90;;;18.79;100.00;98565.09;5028583;28;20122;-65
2022/07/21 05:55:02;;;;;;;17.73;13.60;;;19.50;99.90;;;18.69;100.00;98579.72;5026602;28;20144;-65
2022/07/21 05:57:29;;;;;;;17.05;12.10;;;19.40;99.90;;;18.85;100.00;98588.41;5007447;28;20248;-65
2022/07/21 05:59:58;;;;;;;15.95;12.80;;;19.40;99.90;;;19.20;100.00;98596.78;5009961;28;20099;-65
2022/07/21 06:02:26;;;;;;;14.27;11.35;;;19.50;99.90;;;19.39;100.00;98593.00;5025199;28;20130;-65
2022/07/21 06:04:53;;;;;;;13.38;11.68;;;19.70;99.90;;;19.43;100.00;98574.28;5025590;28;20084;-65
2022/07/21 06:07:20;;;;;;;13.98;11.65;;;19.80;99.90;;;19.13;100.00;98565.66;5027499;28;20132;-65
2022/07/21 06:09:54;;;;;;;12.70;11.00;;;19.80;99.90;;;18.99;100.00;98572.63;5026272;28;20045;-65
2022/07/21 06:12:24;;;;;;;17.13;11.85;;;19.80;99.90;;;19.05;100.00;98597.72;5027828;28;20057;-65
2022/07/21 06:14:55;;;;;;;15.63;12.05;;;19.80;99.90;;;19.37;100.00;98611.53;5025929;28;20049;-65
2022/07/21 06:17:23;;;;;;;15.50;13.10;;;19.70;99.90;;;19.05;100.00;98613.50;5026534;28;20056;-65
2022/07/21 06:19:50;;;;;;;15.98;12.50;;;19.80;99.90;;;19.36;100.00;98619.50;5023992;28;20046;-65
2022/07/21 06:22:17;;;;;;;17.70;10.93;;;19.80;99.90;;;19.60;100.00;98612.72;5027593;28;20467;-65
2022/07/21 06:24:44;;;;;;;16.50;11.50;;;19.90;99.90;;;19.77;100.00;98605.56;5025184;28;20076;-66
2022/07/21 06:27:11;;;;;;;14.98;11.82;;;20.10;99.90;;;19.56;100.00;98579.63;5014109;28;20126;-66
2022/07/21 06:29:41;;;;;;;15.38;11.90;;;20.10;99.90;;;19.84;100.00;98596.31;5011267;28;20144;-66
2022/07/21 06:32:08;;;;;;;17.20;11.80;;;20.00;99.90;;;19.59;100.00;98594.38;5025705;28;20045;-65
2022/07/21 06:34:35;;;;;;;15.85;11.93;;;20.00;99.90;;;19.68;100.00;98598.22;5026528;28;20045;-64
2022/07/21 06:37:02;;;;;;;14.35;11.20;;;20.10;99.90;;;19.95;100.00;98601.75;5022498;28;20099;-64
2022/07/21 06:39:29;;;;;;;14.73;11.80;;;20.20;99.90;;;19.68;100.00;98603.47;5024680;28;20046;-64
2022/07/21 06:41:56;;;;;;;13.80;11.48;;;20.30;99.90;;;20.18;100.00;98600.25;5024382;28;20120;-64
2022/07/21 06:44:24;;;;;;;15.07;11.45;;;20.50;99.90;;;19.97;100.00;98585.84;5024131;28;20501;-64
2022/07/21 06:46:51;;;;;;;15.20;12.40;;;20.60;99.90;;;19.45;100.00;98584.72;5024950;28;20070;-65
2022/07/21 06:49:21;;;;;;;15.52;10.90;;;20.30;99.90;;;19.73;100.00;98602.28;5023097;28;20502;-64
2022/07/21 06:51:48;;;;;;;14.15;10.85;;;20.20;99.90;;;19.80;100.00;98611.50;5025517;28;20116;-64
2022/07/21 06:54:19;;;;;;;12.10;10.48;;;20.20;99.90;;;19.89;100.00;98610.06;5024794;28;20060;-64
2022/07/21 06:56:45;;;;;;;13.45;10.52;;;20.20;99.90;;;19.93;100.00;98618.59;5023915;28;20143;-64
2022/07/21 06:59:14;;;;;;;14.00;9.75;;;20.20;99.90;;;19.78;100.00;98626.56;5008079;28;20049;-64
2022/07/21 07:01:42;;;;;;;13.73;10.45;;;20.20;99.90;;;19.85;100.00;98627.00;5021991;28;20497;-64
2022/07/21 07:04:10;;;;;;;12.10;10.73;;;20.30;99.90;;;19.93;100.00;98635.25;5023418;28;20045;-64
2022/07/21 07:06:38;;;;;;;12.05;10.38;;;20.40;99.90;;;20.14;100.00;98624.28;5021756;28;20049;-64
2022/07/21 07:09:09;;;;;;;12.20;9.85;;;20.70;99.90;;;20.26;100.00;98608.50;5021410;28;20095;-64
2022/07/21 07:11:36;;;;;;;12.40;9.77;;;20.70;99.90;;;20.18;100.00;98602.03;5023978;28;20443;-64
2022/07/21 07:14:09;;;;;;;14.35;12.18;;;20.80;99.90;;;20.21;100.00;98596.59;5024678;28;20080;-64
2022/07/21 07:16:44;;;;;;;15.15;11.60;;;20.90;99.90;;;20.22;100.00;98595.63;5024021;28;20133;-64
2022/07/21 07:19:12;;;;;;;14.18;11.82;;;20.80;99.90;;;20.60;100.00;98587.00;5024046;28;20096;-64
2022/07/21 07:21:41;;;;;;;16.30;13.07;;;20.90;99.90;;;20.27;100.00;98551.34;5025578;28;20128;-64
2022/07/21 07:24:08;;;;;;;13.73;12.15;;;21.00;99.90;;;20.69;100.00;98557.34;5023211;28;20054;-64
2022/07/21 07:26:36;;;;;;;16.08;12.95;;;21.10;99.90;;;20.50;100.00;98555.06;5026403;28;20140;-64
2022/07/21 07:29:02;;;;;;;14.73;10.93;;;21.20;99.90;;;20.68;100.00;98545.09;5031327;28;20152;-66
2022/07/21 07:31:30;;;;;;;14.85;10.73;;;21.30;99.90;;;20.77;100.00;98538.34;5029007;28;20092;-65
2022/07/21 07:33:57;;;;;;;12.27;10.93;;;21.30;99.90;;;20.56;100.00;98527.44;5008685;28;20488;-64
2022/07/21 07:36:25;;;;;;;13.40;9.65;;;21.30;99.90;;;20.56;100.00;98520.41;5030839;28;20210;-65
2022/07/21 07:38:54;;;;;;;14.50;9.27;;;21.40;99.90;;;20.89;100.00;98524.28;5029592;28;20225;-65
2022/07/21 07:41:23;;;;;;;13.00;8.65;;;21.40;99.90;;;20.79;100.00;98513.53;5030847;28;20132;-65
2022/07/21 07:43:54;;;;;;;10.27;8.40;;;21.50;99.90;;;21.01;100.00;98488.31;5026503;28;20523;-65
2022/07/21 07:46:21;;;;;;;13.65;8.77;;;21.60;99.90;;;21.07;100.00;98503.69;5029950;28;20068;-65
2022/07/21 07:48:49;;;;;;;11.93;8.25;;;21.50;99.90;;;20.56;100.00;98488.75;5030410;28;20049;-65
2022/07/21 07:51:16;;;;;;;11.10;8.02;;;21.40;99.90;;;20.73;100.00;98508.69;5031442;28;20060;-65
2022/07/21 07:53:42;;;;;;;13.02;8.65;;;21.30;99.90;;;20.14;100.00;98498.63;5029783;28;20475;-65
2022/07/21 07:56:12;;;;;;;11.38;7.88;;;21.10;99.90;;;20.53;100.00;98517.97;5029072;28;20060;-65
2022/07/21 07:58:39;;;;;;;10.23;7.85;;;21.10;99.90;;;20.85;100.00;98518.41;5030594;28;20077;-64
2022/07/21 08:01:06;;;;;;;11.63;7.82;;;21.30;99.90;;;20.92;100.00;98521.47;5028503;28;20457;-65
2022/07/21 08:03:35;;;;;;;9.52;8.00;;;21.50;99.90;;;21.03;100.00;98486.41;5030590;28;20049;-66
2022/07/21 08:06:04;;;;;;;10.48;7.85;;;21.50;99.90;;;21.19;100.00;98484.34;5029260;28;20132;-66
2022/07/21 08:08:41;;;;;;;10.85;7.03;;;21.70;99.90;;;21.83;100.00;98464.78;5026269;28;20129;-65
2022/07/21 08:11:10;;;;;;;11.45;7.72;;;21.90;99.90;;;21.18;100.00;98452.78;5027890;28;20656;-65
2022/07/21 08:13:37;;;;;;;13.93;7.82;;;22.10;99.90;;;21.34;100.00;98421.66;5026842;28;20128;-66
2022/07/21 08:16:04;;;;;;;9.77;6.85;;;22.00;99.90;;;21.15;100.00;98416.88;5028743;28;20444;-65
2022/07/21 08:18:31;;;;;;;12.23;7.40;;;22.00;99.90;;;21.61;100.00;98418.81;5026593;28;20045;-64
2022/07/21 08:20:58;;;;;;;12.80;7.68;;;22.20;99.90;;;21.76;100.00;98405.41;5014085;28;20124;-64
2022/07/21 08:23:28;;;;;;;14.80;6.80;;;22.40;99.90;;;21.29;100.00;98377.09;5027866;28;20095;-64
2022/07/21 08:25:58;;;;;;;10.93;6.88;;;22.60;99.90;;;21.82;100.00;98374.06;5028805;28;20152;-65
2022/07/21 08:28:26;;;;;;;9.70;6.43;;;22.40;99.90;;;21.99;100.00;98371.97;5027075;28;20132;-65
2022/07/21 08:30:52;;;;;;;8.57;6.60;;;22.40;99.90;;;22.41;100.00;98359.84;5026276;28;20080;-65
2022/07/21 08:33:19;;;;;;;14.65;7.57;;;22.60;99.90;;;21.28;100.00;98356.94;5020744;28;20128;-64
2022/07/21 08:35:49;;;;;;;11.35;7.10;;;22.50;99.90;;;22.19;100.00;98368.63;5023977;28;20136;-66
2022/07/21 08:38:18;;;;;;;6.75;5.68;;;22.60;99.90;;;22.10;100.00;98334.94;5023324;28;20081;-64
2022/07/21 08:40:46;;;;;;;10.10;6.20;;;22.70;99.90;;;21.82;100.00;98329.13;5023709;28;20065;-67
2022/07/21 08:43:16;;;;;;;10.27;6.85;;;23.00;99.90;;;22.32;100.00;98326.19;5007371;28;20121;-67
2022/07/21 08:45:46;;;;;;;10.10;6.63;;;23.00;99.90;;;21.63;100.00;98328.88;5023458;28;20042;-64
2022/07/21 08:48:23;;;;;;;7.32;6.20;;;23.00;99.90;;;21.90;100.00;98325.94;5022625;28;20117;-64
2022/07/21 08:50:51;;;;;;;10.18;6.35;;;22.90;99.90;;;22.14;100.00;98304.66;5029074;28;20126;-64
2022/07/21 08:53:18;;;;;;;7.78;6.38;;;23.10;99.90;;;21.98;100.00;98293.59;5024626;28;20111;-64
2022/07/21 08:55:45;;;;;;;7.05;5.78;;;23.30;99.90;;;22.54;100.00;98286.50;5012134;28;20045;-64
2022/07/21 08:58:14;;;;;;;7.20;5.13;;;23.40;99.90;;;22.68;100.00;98260.72;5021481;28;20077;-65
2022/07/21 09:00:47;;;;;;;9.18;5.15;;;23.30;99.90;;;23.04;100.00;98246.31;5024186;28;20123;-65
2022/07/21 09:03:25;;;;;;;8.85;4.85;;;23.60;99.90;;;22.05;100.00;98237.47;5008808;28;20543;-64
2022/07/21 09:06:08;;;;;;;6.53;5.07;;;23.60;99.90;;;22.29;100.00;98239.19;5008058;28;20077;-65
2022/07/21 09:08:42;;;;;;;7.97;4.60;;;23.50;99.90;;;22.19;100.00;98249.63;5024174;28;20045;-65
2022/07/21 09:11:30;;;;;;;8.23;5.10;;;23.30;99.90;;;22.58;100.00;98260.66;5023225;28;20042;-65
2022/07/21 09:14:14;;;;;;;9.13;4.72;;;23.20;99.90;;;22.66;100.00;98246.78;5022748;28;20044;-65
2022/07/21 09:16:46;;;;;;;7.32;4.60;;;23.30;99.90;;;23.05;100.00;98249.78;5022800;28;20549;-65
2022/07/21 09:19:35;;;;;;;7.13;4.68;;;23.70;99.90;;;22.97;100.00;98247.75;5025432;28;20041;-65
2022/07/21 09:22:16;;;;;;;6.35;3.70;;;24.20;99.90;;;23.63;100.00;98222.81;5022028;28;20057;-65
2022/07/21 09:24:50;;;;;;;9.00;3.90;;;24.20;99.90;;;23.23;100.00;98205.03;5019463;28;20049;-65
2022/07/21 09:27:21;;;;;;;8.07;3.53;;;24.20;99.90;;;23.10;100.00;98213.19;5019850;28;20587;-65
2022/07/21 09:29:59;;;;;;;6.97;4.30;;;24.20;99.90;;;23.11;100.00;98202.47;5021273;28;20136;-65
2022/07/21 09:32:27;;;;;;;7.82;4.50;;;24.50;99.90;;;22.71;100.00;98213.69;5022534;28;20440;-66
2022/07/21 09:35:03;;;;;;;6.53;3.85;;;24.20;99.90;;;23.28;100.00;98216.09;5020222;28;20132;-65
2022/07/21 09:37:35;;;;;;;4.32;3.33;;;24.20;99.90;;;23.39;100.00;98211.56;5018018;28;20057;-66
2022/07/21 09:40:09;;;;;;;7.20;4.07;;;24.50;99.90;;;23.14;100.00;98211.94;5020894;28;20081;-66
2022/07/21 09:42:49;;;;;;;6.20;3.50;;;24.40;99.90;;;22.94;100.00;98195.91;5024275;28;20136;-66
2022/07/21 09:45:18;;;;;;;8.65;4.05;;;24.10;99.90;;;22.68;100.00;98211.28;5018755;28;20128;-65
2022/07/21 09:47:47;;;;;;;5.43;3.25;;;24.00;99.90;;;23.45;100.00;98223.44;5019571;28;20049;-65
2022/07/21 09:50:16;;;;;;;11.85;3.70;;;24.00;99.90;;;23.93;100.00;98192.88;5024056;28;20216;-65
2022/07/21 09:52:57;;;;;;;7.20;3.90;;;24.20;99.90;;;24.32;100.00;98167.28;5006357;28;20049;-65
2022/07/21 09:55:25;;;;;;;8.75;4.40;;;24.60;99.90;;;23.84;100.00;98152.09;5023657;28;20049;-66
2022/07/21 09:57:55;;;;;;;7.70;3.38;;;24.80;99.90;;;24.46;100.00;98154.59;5025680;28;20483;-65
2022/07/21 10:00:22;;;;;;;4.55;3.05;;;24.70;99.90;;;25.57;100.00;98161.19;5025951;28;20057;-65
2022/07/21 10:02:53;;;;;;;5.97;3.45;;;25.00;99.90;;;25.05;100.00;98142.97;5025507;28;20061;-65
2022/07/21 10:05:21;;;;;;;6.82;3.38;;;25.60;99.90;;;24.92;100.00;98115.88;5023978;28;20085;-65
2022/07/21 10:07:58;;;;;;;6.32;3.17;;;25.60;99.90;;;25.65;100.00;98113.41;5022685;28;20049;-65
2022/07/21 10:10:25;;;;;;;8.35;3.75;;;25.70;99.90;;;24.94;100.00;98141.31;5023766;28;20120;-65
2022/07/21 10:13:13;;;;;;;6.95;3.40;;;25.90;99.90;;;25.38;100.00;98133.66;5027998;28;20052;-65
2022/07/21 10:15:40;;;;;;;6.90;3.67;;;26.00;99.90;;;24.60;100.00;98125.81;5024966;28;20053;-65